createdAt,value
2023-03-11T00:01:10.687Z,4.75
2023-03-11T00:03:38.700Z,4.75
2023-03-11T00:06:07.483Z,4.76
2023-03-11T00:08:36.100Z,4.77
2023-03-11T00:11:04.375Z,4.77
2023-03-11T00:13:35.665Z,4.75
2023-03-11T00:16:04.174Z,4.74
2023-03-11T00:18:34.970Z,4.73
2023-03-11T00:21:03.054Z,4.72
2023-03-11T00:23:31.112Z,4.73
2023-03-11T00:26:01.250Z,4.76
2023-03-11T00:28:29.627Z,4.76
2023-03-11T00:30:57.726Z,4.75
2023-03-11T00:33:26.677Z,4.72
2023-03-11T00:35:58.457Z,4.70
2023-03-11T00:38:26.742Z,4.68
2023-03-11T00:40:54.759Z,4.65
2023-03-11T00:43:23.484Z,4.63
2023-03-11T00:45:51.373Z,4.62
2023-03-11T00:48:20.073Z,4.61
2023-03-11T00:50:48.137Z,4.59
2023-03-11T00:53:16.073Z,4.54
2023-03-11T00:55:44.377Z,4.54
2023-03-11T00:58:13.799Z,4.55
2023-03-11T01:00:46.030Z,4.53
2023-03-11T01:03:14.478Z,4.50
2023-03-11T01:05:43.832Z,4.44
2023-03-11T01:08:12.892Z,4.42
2023-03-11T01:10:40.976Z,4.44
2023-03-11T01:13:09.321Z,4.45
2023-03-11T01:15:37.810Z,4.44
2023-03-11T01:18:06.726Z,4.45
2023-03-11T01:20:38.412Z,4.46
2023-03-11T01:23:08.258Z,4.46
2023-03-11T01:25:36.691Z,4.44
2023-03-11T01:28:05.826Z,4.40
2023-03-11T01:30:36.176Z,4.38
2023-03-11T01:33:06.798Z,4.37
2023-03-11T01:35:35.565Z,4.37
2023-03-11T01:38:04.217Z,4.36
2023-03-11T01:40:37.313Z,4.35
2023-03-11T01:43:39.958Z,4.36
2023-03-11T01:46:32.034Z,4.35
2023-03-11T01:49:03.050Z,4.31
2023-03-11T01:51:40.442Z,4.25
2023-03-11T01:54:24.101Z,4.19
2023-03-11T01:56:54.713Z,4.13
2023-03-11T01:59:31.263Z,4.10
2023-03-11T02:02:22.984Z,4.05
2023-03-11T02:04:54.673Z,4.00
2023-03-11T02:07:24.724Z,3.98
2023-03-11T02:10:02.094Z,3.95
2023-03-11T02:12:35.884Z,3.93
2023-03-11T02:15:06.755Z,3.90
2023-03-11T02:17:43.940Z,3.89
2023-03-11T02:20:18.435Z,3.88
2023-03-11T02:22:48.509Z,3.87
2023-03-11T02:25:39.478Z,3.87
2023-03-11T02:28:11.509Z,3.85
2023-03-11T02:30:43.492Z,3.83
2023-03-11T02:33:14.871Z,3.83
2023-03-11T02:35:44.959Z,3.82
2023-03-11T02:38:14.448Z,3.78
2023-03-11T02:40:54.027Z,3.77
2023-03-11T02:43:28.296Z,3.76
2023-03-11T02:45:57.753Z,3.77
2023-03-11T02:48:26.313Z,3.79
2023-03-11T02:50:54.362Z,3.78
2023-03-11T02:53:22.883Z,3.76
2023-03-11T02:55:51.073Z,3.74
2023-03-11T02:58:19.005Z,3.72
2023-03-11T03:00:47.735Z,3.72
2023-03-11T03:03:16.250Z,3.72
2023-03-11T03:05:44.341Z,3.71
2023-03-11T03:08:12.936Z,3.70
2023-03-11T03:10:42.462Z,3.69
2023-03-11T03:13:10.631Z,3.68
2023-03-11T03:15:39.949Z,3.68
2023-03-11T03:18:08.971Z,3.67
2023-03-11T03:20:37.062Z,3.65
2023-03-11T03:23:06.944Z,3.64
2023-03-11T03:25:35.181Z,3.61
2023-03-11T03:28:05.724Z,3.58
2023-03-11T03:30:36.214Z,3.53
2023-03-11T03:33:04.407Z,3.49
2023-03-11T03:35:33.622Z,3.46
2023-03-11T03:38:13.914Z,3.43
2023-03-11T03:40:47.846Z,3.39
2023-03-11T03:43:18.053Z,3.38
2023-03-11T03:45:56.685Z,3.37
2023-03-11T03:48:26.029Z,3.38
2023-03-11T03:50:54.188Z,3.36
2023-03-11T03:53:24.954Z,3.35
2023-03-11T03:55:55.348Z,3.33
2023-03-11T03:58:25.069Z,3.30
2023-03-11T04:00:57.148Z,3.28
2023-03-11T04:03:26.738Z,3.26
2023-03-11T04:06:25.302Z,3.22
2023-03-11T04:09:07.190Z,3.19
2023-03-11T04:11:36.124Z,3.18
2023-03-11T04:14:07.284Z,3.17
2023-03-11T04:16:38.533Z,3.17
2023-03-11T04:19:09.802Z,3.16
2023-03-11T04:21:38.259Z,3.15
2023-03-11T04:24:09.715Z,3.15
2023-03-11T04:26:38.707Z,3.16
2023-03-11T04:29:08.501Z,3.17
2023-03-11T04:31:40.670Z,3.18
2023-03-11T04:34:08.599Z,3.19
2023-03-11T04:36:38.395Z,3.20
2023-03-11T04:39:07.236Z,3.21
2023-03-11T04:41:41.004Z,3.22
2023-03-11T04:44:09.573Z,3.23
2023-03-11T04:46:38.323Z,3.22
2023-03-11T04:49:08.189Z,3.25
2023-03-11T04:51:36.321Z,3.26
2023-03-11T04:54:04.613Z,3.27
2023-03-11T04:56:32.878Z,3.28
2023-03-11T04:59:02.027Z,3.29
2023-03-11T05:01:32.228Z,3.30
2023-03-11T05:04:01.650Z,3.29
2023-03-11T05:06:29.743Z,3.28
2023-03-11T05:08:59.077Z,3.28
2023-03-11T05:11:27.150Z,3.28
2023-03-11T05:13:57.085Z,3.29
2023-03-11T05:16:25.718Z,3.31
2023-03-11T05:18:54.060Z,3.34
2023-03-11T05:21:24.794Z,3.36
2023-03-11T05:23:54.153Z,3.39
2023-03-11T05:26:22.059Z,3.42
2023-03-11T05:28:50.438Z,3.45
2023-03-11T05:31:19.758Z,3.46
2023-03-11T05:33:53.996Z,3.46
2023-03-11T05:36:22.962Z,3.48
2023-03-11T05:38:53.209Z,3.51
2023-03-11T05:41:21.396Z,3.55
2023-03-11T05:43:49.604Z,3.59
2023-03-11T05:46:19.894Z,3.63
2023-03-11T05:48:48.145Z,3.67
2023-03-11T05:51:29.861Z,3.72
2023-03-11T05:53:58.837Z,3.75
2023-03-11T05:56:34.129Z,3.77
2023-03-11T05:59:02.404Z,3.78
2023-03-11T06:01:32.333Z,3.81
2023-03-11T06:04:02.535Z,3.85
2023-03-11T06:06:41.635Z,3.88
2023-03-11T06:09:14.595Z,3.90
2023-03-11T06:11:43.094Z,3.90
2023-03-11T06:14:13.626Z,3.89
2023-03-11T06:16:42.937Z,3.93
2023-03-11T06:19:13.491Z,3.94
2023-03-11T06:21:44.444Z,3.95
2023-03-11T06:24:13.473Z,3.95
2023-03-11T06:26:44.031Z,3.97
2023-03-11T06:29:14.687Z,3.98
2023-03-11T06:31:42.915Z,4.01
2023-03-11T06:34:12.472Z,4.04
2023-03-11T06:36:40.552Z,4.08
2023-03-11T06:39:13.119Z,4.13
2023-03-11T06:41:43.083Z,4.17
2023-03-11T06:44:11.820Z,4.21
2023-03-11T06:46:40.404Z,4.22
2023-03-11T06:49:08.535Z,4.26
2023-03-11T06:51:37.755Z,4.31
2023-03-11T06:54:07.169Z,4.36
2023-03-11T06:56:40.236Z,4.41
2023-03-11T06:59:09.984Z,4.44
2023-03-11T07:01:38.048Z,4.49
2023-03-11T07:04:07.658Z,4.53
2023-03-11T07:06:37.262Z,4.58
2023-03-11T07:09:14.183Z,4.63
2023-03-11T07:11:44.651Z,4.67
2023-03-11T07:14:16.588Z,4.72
2023-03-11T07:16:47.960Z,4.78
2023-03-11T07:19:25.673Z,4.85
2023-03-11T07:21:53.839Z,4.90
2023-03-11T07:24:22.199Z,4.95
2023-03-11T07:26:51.201Z,4.97
2023-03-11T07:29:20.298Z,4.99
2023-03-11T07:31:49.535Z,5.02
2023-03-11T07:34:18.954Z,5.03
2023-03-11T07:36:48.535Z,5.04
2023-03-11T07:39:19.052Z,5.06
2023-03-11T07:41:47.788Z,5.08
2023-03-11T07:44:17.482Z,5.11
2023-03-11T07:46:46.205Z,5.13
2023-03-11T07:49:15.222Z,5.14
2023-03-11T07:51:44.846Z,5.15
2023-03-11T07:54:13.839Z,5.15
2023-03-11T07:56:43.301Z,5.18
2023-03-11T07:59:13.861Z,5.25
2023-03-11T08:01:47.458Z,5.32
2023-03-11T08:04:17.402Z,5.38
2023-03-11T08:06:47.743Z,5.45
2023-03-11T08:09:16.037Z,5.49
2023-03-11T08:11:44.837Z,5.53
2023-03-11T08:14:13.005Z,5.55
2023-03-11T08:16:42.265Z,5.56
2023-03-11T08:19:14.068Z,5.57
2023-03-11T08:21:42.219Z,5.58
2023-03-11T08:24:13.300Z,5.60
2023-03-11T08:26:42.353Z,5.64
2023-03-11T08:29:11.226Z,5.67
2023-03-11T08:31:39.785Z,5.71
2023-03-11T08:34:10.521Z,5.76
2023-03-11T08:36:38.679Z,5.81
2023-03-11T08:39:07.095Z,5.88
2023-03-11T08:41:35.227Z,5.95
2023-03-11T08:44:03.725Z,6.01
2023-03-11T08:46:35.627Z,6.07
2023-03-11T08:49:07.138Z,6.12
2023-03-11T08:51:36.793Z,6.15
2023-03-11T08:54:10.195Z,6.18
2023-03-11T08:56:39.519Z,6.19
2023-03-11T08:59:08.627Z,6.19
2023-03-11T09:01:37.737Z,6.18
2023-03-11T09:04:05.800Z,6.16
2023-03-11T09:06:44.338Z,6.16
2023-03-11T09:09:13.771Z,6.18
2023-03-11T09:11:42.039Z,6.13
2023-03-11T09:14:10.148Z,6.09
2023-03-11T09:16:38.735Z,6.08
2023-03-11T09:19:07.624Z,6.08
2023-03-11T09:21:38.211Z,6.08
2023-03-11T09:24:06.769Z,6.06
2023-03-11T09:26:35.141Z,6.04
2023-03-11T09:29:03.461Z,6.02
2023-03-11T09:31:31.524Z,5.98
2023-03-11T09:33:59.622Z,5.93
2023-03-11T09:36:28.130Z,5.88
2023-03-11T09:38:56.213Z,5.83
2023-03-11T09:41:58.005Z,5.80
2023-03-11T09:44:34.281Z,5.76
2023-03-11T09:47:27.365Z,5.73
2023-03-11T09:51:03.533Z,5.69
2023-03-11T09:53:37.089Z,5.64
2023-03-11T09:56:08.273Z,5.59
2023-03-11T09:58:50.783Z,5.59
2023-03-11T10:01:45.142Z,5.59
2023-03-11T10:04:20.252Z,5.58
2023-03-11T10:06:49.009Z,5.55
2023-03-11T10:09:39.469Z,5.51
2023-03-11T10:12:23.626Z,5.47
2023-03-11T10:15:17.446Z,5.43
2023-03-11T10:17:59.836Z,5.40
2023-03-11T10:20:42.348Z,5.39
2023-03-11T10:23:26.238Z,5.38
2023-03-11T10:26:03.049Z,5.39
2023-03-11T10:28:39.434Z,5.36
2023-03-11T10:31:33.334Z,5.36
2023-03-11T10:34:13.755Z,5.33
2023-03-11T10:37:07.463Z,5.34
2023-03-11T10:39:35.692Z,5.34
2023-03-11T10:42:06.381Z,5.36
2023-03-11T10:44:38.451Z,5.41
2023-03-11T10:47:12.537Z,5.43
2023-03-11T10:49:40.823Z,5.44
2023-03-11T10:52:09.164Z,5.45
2023-03-11T10:54:46.479Z,5.46
2023-03-11T10:57:38.921Z,5.47
2023-03-11T11:00:17.257Z,5.48
2023-03-11T11:02:58.272Z,5.51
2023-03-11T11:05:32.855Z,5.53
2023-03-11T11:08:16.077Z,5.55
2023-03-11T11:10:55.176Z,5.60
2023-03-11T11:13:26.745Z,5.64
2023-03-11T11:16:03.378Z,5.68
2023-03-11T11:18:35.517Z,5.72
2023-03-11T11:21:07.990Z,5.77
2023-03-11T11:23:41.266Z,5.83
2023-03-11T11:26:20.786Z,5.87
2023-03-11T11:29:17.043Z,5.92
2023-03-11T11:31:47.472Z,5.95
2023-03-11T11:34:31.445Z,5.94
2023-03-11T11:37:05.477Z,5.94
2023-03-11T11:39:51.576Z,5.97
2023-03-11T11:42:21.153Z,5.99
2023-03-11T11:44:56.770Z,6.01
2023-03-11T11:47:33.180Z,6.04
2023-03-11T11:50:05.541Z,6.05
2023-03-11T11:52:53.718Z,6.06
2023-03-11T11:55:28.460Z,6.04
2023-03-11T11:57:57.416Z,6.04
2023-03-11T12:00:42.885Z,6.04
2023-03-11T12:03:43.597Z,6.03
2023-03-11T12:06:27.086Z,6.02
2023-03-11T12:09:16.523Z,6.01
2023-03-11T12:11:56.154Z,6.00
2023-03-11T12:14:46.086Z,6.01
2023-03-11T12:17:19.279Z,6.01
2023-03-11T12:19:56.227Z,6.01
2023-03-11T12:22:49.186Z,6.02
2023-03-11T12:25:32.740Z,6.03
2023-03-11T12:28:12.282Z,6.07
2023-03-11T12:30:48.794Z,6.10
2023-03-11T12:33:42.823Z,6.13
2023-03-11T12:36:32.394Z,6.14
2023-03-11T12:39:03.339Z,6.14
2023-03-11T12:41:41.968Z,6.15
2023-03-11T12:44:23.677Z,6.17
2023-03-11T12:46:54.503Z,6.20
2023-03-11T12:49:31.787Z,6.22
2023-03-11T12:52:04.605Z,6.22
2023-03-11T12:54:35.674Z,6.22
2023-03-11T12:57:18.959Z,6.23
2023-03-11T13:00:17.556Z,6.28
2023-03-11T13:03:16.972Z,6.34
2023-03-11T13:06:04.075Z,6.42
2023-03-11T13:08:57.139Z,6.48
2023-03-11T13:11:34.344Z,6.54
2023-03-11T13:14:16.441Z,6.56
2023-03-11T13:16:46.819Z,6.60
2023-03-11T13:19:27.279Z,6.61
2023-03-11T13:22:00.408Z,6.62
2023-03-11T13:24:31.561Z,6.66
2023-03-11T13:26:59.643Z,6.67
2023-03-11T13:29:40.042Z,6.66
2023-03-11T13:32:29.961Z,6.66
2023-03-11T13:35:36.048Z,6.69
2023-03-11T13:38:31.752Z,6.70
2023-03-11T13:41:03.258Z,6.70
2023-03-11T13:43:31.373Z,6.69
2023-03-11T13:46:08.155Z,6.70
2023-03-11T13:48:42.468Z,6.71
2023-03-11T13:51:20.371Z,6.75
2023-03-11T13:53:57.080Z,6.78
2023-03-11T13:56:24.973Z,6.81
2023-03-11T13:58:53.204Z,6.84
2023-03-11T14:01:21.401Z,6.86
2023-03-11T14:03:51.914Z,6.88
2023-03-11T14:06:20.785Z,6.89
2023-03-11T14:08:57.366Z,6.89
2023-03-11T14:11:32.040Z,6.90
2023-03-11T14:14:01.873Z,6.91
2023-03-11T14:16:43.679Z,6.92
2023-03-11T14:19:19.231Z,6.92
2023-03-11T14:21:51.875Z,6.94
2023-03-11T14:24:25.361Z,6.94
2023-03-11T14:26:56.669Z,6.96
2023-03-11T14:29:34.605Z,6.96
2023-03-11T14:32:16.788Z,6.95
2023-03-11T14:34:46.156Z,6.96
2023-03-11T14:37:37.230Z,6.98
2023-03-11T14:40:34.225Z,7.03
2023-03-11T14:43:06.487Z,7.08
2023-03-11T14:45:37.540Z,7.11
2023-03-11T14:48:18.119Z,7.14
2023-03-11T14:50:49.726Z,7.17
2023-03-11T14:53:34.198Z,7.19
2023-03-11T14:56:08.749Z,7.22
2023-03-11T14:58:41.752Z,7.27
2023-03-11T15:01:17.462Z,7.30
2023-03-11T15:03:53.644Z,7.33
2023-03-11T15:06:29.970Z,7.37
2023-03-11T15:09:08.286Z,7.41
2023-03-11T15:11:48.040Z,7.45
2023-03-11T15:14:17.415Z,7.47
2023-03-11T15:16:46.078Z,7.49
2023-03-11T15:19:44.404Z,7.50
2023-03-11T15:22:39.913Z,7.53
2023-03-11T15:25:19.801Z,7.57
2023-03-11T15:27:47.827Z,7.62
2023-03-11T15:30:22.110Z,7.63
2023-03-11T15:32:51.856Z,7.64
2023-03-11T15:35:29.063Z,7.64
2023-03-11T15:38:27.838Z,7.67
2023-03-11T15:41:01.915Z,7.72
2023-03-11T15:43:47.621Z,7.74
2023-03-11T15:46:16.113Z,7.77
2023-03-11T15:48:45.624Z,7.81
2023-03-11T15:51:19.389Z,7.84
2023-03-11T15:53:48.764Z,7.85
2023-03-11T15:56:24.796Z,7.87
2023-03-11T15:58:53.889Z,7.89
2023-03-11T16:01:28.625Z,7.91
2023-03-11T16:03:57.018Z,7.94
2023-03-11T16:06:25.222Z,7.96
2023-03-11T16:08:53.654Z,8.00
2023-03-11T16:11:23.021Z,8.02
2023-03-11T16:13:52.660Z,8.06
2023-03-11T16:16:20.870Z,8.08
2023-03-11T16:18:48.890Z,8.10
2023-03-11T16:21:20.409Z,8.10
2023-03-11T16:23:52.045Z,8.12
2023-03-11T16:26:22.753Z,8.15
2023-03-11T16:28:51.252Z,8.16
2023-03-11T16:31:19.374Z,8.19
2023-03-11T16:33:48.020Z,8.23
2023-03-11T16:36:16.468Z,8.24
2023-03-11T16:38:50.649Z,8.27
2023-03-11T16:41:18.783Z,8.31
2023-03-11T16:43:47.317Z,8.35
2023-03-11T16:46:15.675Z,8.38
2023-03-11T16:48:43.636Z,8.42
2023-03-11T16:51:11.742Z,8.44
2023-03-11T16:53:40.121Z,8.48
2023-03-11T16:56:08.098Z,8.50
2023-03-11T16:58:36.022Z,8.50
2023-03-11T17:01:04.206Z,8.52
2023-03-11T17:03:42.038Z,8.53
2023-03-11T17:06:10.717Z,8.55
2023-03-11T17:08:39.446Z,8.53
2023-03-11T17:11:17.898Z,8.52
2023-03-11T17:13:46.729Z,8.52
2023-03-11T17:16:14.881Z,8.52
2023-03-11T17:18:43.167Z,8.51
2023-03-11T17:21:13.608Z,8.51
2023-03-11T17:23:42.736Z,8.51
2023-03-11T17:26:14.237Z,8.51
2023-03-11T17:28:43.481Z,8.53
2023-03-11T17:31:14.636Z,8.54
2023-03-11T17:33:44.652Z,8.54
2023-03-11T17:36:16.327Z,8.53
2023-03-11T17:38:47.295Z,8.54
2023-03-11T17:41:17.370Z,8.55
2023-03-11T17:43:46.386Z,8.57
2023-03-11T17:46:19.157Z,8.57
2023-03-11T17:48:49.819Z,8.57
2023-03-11T17:51:20.887Z,8.58
2023-03-11T17:53:49.610Z,8.64
2023-03-11T17:56:22.643Z,8.63
2023-03-11T17:58:51.946Z,8.63
2023-03-11T18:01:23.704Z,8.69
2023-03-11T18:03:52.127Z,8.70
2023-03-11T18:06:21.651Z,8.73
2023-03-11T18:08:55.094Z,8.76
2023-03-11T18:11:27.813Z,8.79
2023-03-11T18:13:56.305Z,8.82
2023-03-11T18:16:28.553Z,8.84
2023-03-11T18:18:57.619Z,8.87
2023-03-11T18:21:29.302Z,8.89
2023-03-11T18:24:00.367Z,8.89
2023-03-11T18:26:31.647Z,8.89
2023-03-11T18:29:00.610Z,8.90
2023-03-11T18:31:30.696Z,8.90
2023-03-11T18:34:07.341Z,8.92
2023-03-11T18:36:37.474Z,8.93
2023-03-11T18:39:12.384Z,8.94
2023-03-11T18:41:42.857Z,8.94
2023-03-11T18:44:16.141Z,8.95
2023-03-11T18:46:46.218Z,8.94
2023-03-11T18:49:14.337Z,8.93
2023-03-11T18:51:44.119Z,8.89
2023-03-11T18:54:12.749Z,8.87
2023-03-11T18:56:41.364Z,8.87
2023-03-11T18:59:12.082Z,8.86
2023-03-11T19:01:40.374Z,8.86
2023-03-11T19:04:10.135Z,8.84
2023-03-11T19:06:38.451Z,8.85
2023-03-11T19:09:06.780Z,8.83
2023-03-11T19:11:35.280Z,8.80
2023-03-11T19:14:04.623Z,8.76
2023-03-11T19:16:32.683Z,8.76
2023-03-11T19:19:01.468Z,8.74
2023-03-11T19:21:29.857Z,8.72
2023-03-11T19:23:58.107Z,8.73
2023-03-11T19:26:43.216Z,8.72
2023-03-11T19:29:13.945Z,8.69
2023-03-11T19:31:46.232Z,8.66
2023-03-11T19:34:14.444Z,8.61
2023-03-11T19:36:42.470Z,8.59
2023-03-11T19:39:10.784Z,8.59
2023-03-11T19:41:39.213Z,8.58
2023-03-11T19:44:07.207Z,8.55
2023-03-11T19:46:36.358Z,8.51
2023-03-11T19:49:04.886Z,8.46
2023-03-11T19:51:48.593Z,8.43
2023-03-11T19:54:18.705Z,8.41
2023-03-11T19:56:50.432Z,8.42
2023-03-11T19:59:19.133Z,8.41
2023-03-11T20:01:47.402Z,8.39
2023-03-11T20:04:16.737Z,8.35
2023-03-11T20:06:45.595Z,8.30
2023-03-11T20:09:16.264Z,8.27
2023-03-11T20:11:45.738Z,8.26
2023-03-11T20:14:15.683Z,8.24
2023-03-11T20:16:43.910Z,8.21
2023-03-11T20:19:13.503Z,8.20
2023-03-11T20:21:45.371Z,8.14
2023-03-11T20:24:16.223Z,8.11
2023-03-11T20:26:45.611Z,8.08
2023-03-11T20:29:13.691Z,8.09
2023-03-11T20:31:42.220Z,8.11
2023-03-11T20:34:11.447Z,8.08
2023-03-11T20:36:42.964Z,8.01
2023-03-11T20:39:11.692Z,7.98
2023-03-11T20:41:40.838Z,7.95
2023-03-11T20:44:12.732Z,7.95
2023-03-11T20:46:42.201Z,7.94
2023-03-11T20:49:11.563Z,7.94
2023-03-11T20:51:41.887Z,7.90
2023-03-11T20:54:17.005Z,7.89
2023-03-11T20:56:45.457Z,7.84
2023-03-11T20:59:16.326Z,7.79
2023-03-11T21:01:45.815Z,7.77
2023-03-11T21:04:16.336Z,7.75
2023-03-11T21:06:49.867Z,7.73
2023-03-11T21:09:19.211Z,7.71
2023-03-11T21:11:47.211Z,7.69
2023-03-11T21:14:17.748Z,7.70
2023-03-11T21:16:46.051Z,7.71
2023-03-11T21:19:14.657Z,7.67
2023-03-11T21:21:48.010Z,7.67
2023-03-11T21:24:16.000Z,7.70
2023-03-11T21:26:44.454Z,7.71
2023-03-11T21:29:13.529Z,7.73
2023-03-11T21:31:41.839Z,7.74
2023-03-11T21:34:11.787Z,7.76
2023-03-11T21:36:40.671Z,7.81
2023-03-11T21:39:10.360Z,7.81
2023-03-11T21:41:39.858Z,7.78
2023-03-11T21:44:08.566Z,7.75
2023-03-11T21:46:36.926Z,7.74
2023-03-11T21:49:05.749Z,7.62
2023-03-11T21:51:35.471Z,7.58
2023-03-11T21:54:05.373Z,7.55
2023-03-11T21:56:35.427Z,7.54
2023-03-11T21:59:03.976Z,7.54
2023-03-11T22:01:34.899Z,7.51
2023-03-11T22:04:03.836Z,7.51
2023-03-11T22:06:33.671Z,7.50
2023-03-11T22:09:02.650Z,7.47
2023-03-11T22:11:32.176Z,7.40
2023-03-11T22:14:01.046Z,7.37
2023-03-11T22:16:29.938Z,7.35
2023-03-11T22:18:59.914Z,7.31
2023-03-11T22:21:28.288Z,7.27
2023-03-11T22:23:56.273Z,7.24
2023-03-11T22:26:24.201Z,7.21
2023-03-11T22:28:52.413Z,7.18
2023-03-11T22:31:20.609Z,7.16
2023-03-11T22:33:49.611Z,7.14
2023-03-11T22:36:18.261Z,7.09
2023-03-11T22:38:46.321Z,7.09
2023-03-11T22:41:19.268Z,7.08
2023-03-11T22:43:47.401Z,7.05
2023-03-11T22:46:15.477Z,7.02
2023-03-11T22:48:43.857Z,6.97
2023-03-11T22:51:15.623Z,6.98
2023-03-11T22:53:43.737Z,6.93
2023-03-11T22:56:15.501Z,6.83
2023-03-11T22:58:46.631Z,6.75
2023-03-11T23:01:16.554Z,6.67
2023-03-11T23:03:45.355Z,6.57
2023-03-11T23:06:17.599Z,6.47
2023-03-11T23:08:46.341Z,6.36
2023-03-11T23:11:17.770Z,6.34
2023-03-11T23:13:45.984Z,6.29
2023-03-11T23:16:16.896Z,6.22
2023-03-11T23:18:52.325Z,6.13
2023-03-11T23:21:24.305Z,6.06
2023-03-11T23:23:53.227Z,5.98
2023-03-11T23:26:22.470Z,5.90
2023-03-11T23:28:53.747Z,5.83
2023-03-11T23:31:25.246Z,5.76
2023-03-11T23:33:54.620Z,5.72
2023-03-11T23:36:27.074Z,5.70
2023-03-11T23:38:58.738Z,5.72
2023-03-11T23:41:27.886Z,5.67
2023-03-11T23:43:55.994Z,5.64
2023-03-11T23:46:24.454Z,5.62
2023-03-11T23:48:52.746Z,5.61
2023-03-11T23:51:20.651Z,5.57
2023-03-11T23:53:49.136Z,5.53
2023-03-11T23:56:18.753Z,5.51
2023-03-11T23:58:48.777Z,5.45
